Terminal Aerodrome Forecast
Issued by NWS

Home | Current Version | Previous Version | Text Only | Print | Product List | Glossary On
Versions: 1 2 3 4 5 6 7 8 9 10 11 12 13 14 15 16 17 18 19 20 21 22 23 24
000
FTUS41 KCTP 261522 AAC
TAFUNV
TAF AMD
KUNV 261522Z 2615/2712 13007KT 5SM BR OVC009
     FM270300 16005KT 4SM -SHRA OVC008
     FM271000 22005KT 3SM -RADZ BR OVC007=

USA.gov is the U.S. government's official web portal to all federal, state and local government web resources and services.